createdAt,value
2022-11-29T00:01:25.509Z,97983.09
2022-11-29T00:03:52.243Z,97982.25
2022-11-29T00:06:23.318Z,97983.06
2022-11-29T00:08:50.444Z,97982.09
2022-11-29T00:11:38.899Z,97980.16
2022-11-29T00:14:06.290Z,97980.78
2022-11-29T00:16:32.817Z,97971.84
2022-11-29T00:18:59.315Z,97970.75
2022-11-29T00:21:25.894Z,97969.63
2022-11-29T00:23:52.610Z,97971.09
2022-11-29T00:26:19.145Z,97965.75
2022-11-29T00:28:45.606Z,97968.16
2022-11-29T00:31:19.721Z,97968.97
2022-11-29T00:33:46.247Z,97973.34
2022-11-29T00:36:12.803Z,97972.06
2022-11-29T00:38:39.399Z,97975.28
2022-11-29T00:41:06.127Z,97969.63
2022-11-29T00:43:32.678Z,97973.19
2022-11-29T00:45:59.216Z,97971.25
2022-11-29T00:48:25.699Z,97976.91
2022-11-29T00:50:52.174Z,97981.59
2022-11-29T00:53:18.632Z,97977.06
2022-11-29T00:55:47.321Z,97971.41
2022-11-29T00:58:14.031Z,97979.16
2022-11-29T01:00:40.610Z,97978.38
2022-11-29T01:03:07.289Z,97975.94
2022-11-29T01:05:33.760Z,97975.63
2022-11-29T01:08:00.456Z,97982.41
2022-11-29T01:10:26.958Z,97973.34
2022-11-29T01:12:53.830Z,97982.72
2022-11-29T01:15:20.276Z,97979.00
2022-11-29T01:17:46.822Z,97984.34
2022-11-29T01:20:13.472Z,97978.84
2022-11-29T01:22:40.333Z,97985.66
2022-11-29T01:25:07.382Z,97993.56
2022-11-29T01:27:34.508Z,97998.88
2022-11-29T01:30:00.972Z,97994.38
2022-11-29T01:32:27.465Z,97997.78
2022-11-29T01:34:53.939Z,97999.72
2022-11-29T01:37:20.405Z,98002.16
2022-11-29T01:39:46.900Z,98000.06
2022-11-29T01:42:13.654Z,98002.63
2022-11-29T01:44:39.966Z,98000.22
2022-11-29T01:47:06.443Z,97999.59
2022-11-29T01:49:36.174Z,97999.75
2022-11-29T01:52:08.147Z,98007.19
2022-11-29T01:54:36.809Z,97999.59
2022-11-29T01:57:04.488Z,98006.69
2022-11-29T01:59:30.955Z,98003.94
2022-11-29T02:02:00.969Z,98006.69
2022-11-29T02:04:27.430Z,98009.59
2022-11-29T02:06:54.033Z,98017.03
2022-11-29T02:09:22.198Z,98007.16
2022-11-29T02:12:07.906Z,98014.63
2022-11-29T02:14:49.999Z,98021.72
2022-11-29T02:17:39.769Z,98021.09
2022-11-29T02:20:23.082Z,98023.34
2022-11-29T02:23:28.468Z,98023.53
2022-11-29T02:26:30.454Z,98017.84
2022-11-29T02:29:18.257Z,98024.00
2022-11-29T02:32:18.574Z,98025.13
2022-11-29T02:34:50.996Z,98029.81
2022-11-29T02:37:38.481Z,98030.16
2022-11-29T02:40:14.387Z,98029.16
2022-11-29T02:43:10.941Z,98027.91
2022-11-29T02:46:05.032Z,98029.03
2022-11-29T02:48:53.333Z,98039.53
2022-11-29T02:51:39.601Z,98027.88
2022-11-29T02:54:16.744Z,98029.19
2022-11-29T02:56:54.610Z,98035.50
2022-11-29T02:59:48.486Z,98040.19
2022-11-29T03:02:26.725Z,98030.66
2022-11-29T03:05:30.855Z,98036.94
2022-11-29T03:08:06.321Z,98045.53
2022-11-29T03:11:10.245Z,98042.94
2022-11-29T03:13:58.563Z,98042.47
2022-11-29T03:16:43.909Z,98048.13
2022-11-29T03:19:34.986Z,98041.00
2022-11-29T03:22:14.103Z,98052.31
2022-11-29T03:25:03.665Z,98054.75
2022-11-29T03:27:45.898Z,98063.16
2022-11-29T03:30:14.965Z,98065.25
2022-11-29T03:32:59.600Z,98060.41
2022-11-29T03:35:42.990Z,98070.13
2022-11-29T03:38:25.664Z,98072.38
2022-11-29T03:41:17.224Z,98070.28
2022-11-29T03:44:14.705Z,98071.41
2022-11-29T03:46:55.585Z,98069.31
2022-11-29T03:49:32.284Z,98075.00
2022-11-29T03:52:01.235Z,98078.53
2022-11-29T03:55:05.220Z,98070.63
2022-11-29T03:57:38.345Z,98074.16
2022-11-29T04:00:09.505Z,98077.56
2022-11-29T04:02:48.077Z,98079.53
2022-11-29T04:05:46.325Z,98077.41
2022-11-29T04:09:20.973Z,98077.25
2022-11-29T04:12:14.895Z,98078.38
2022-11-29T04:15:21.386Z,98076.75
2022-11-29T04:18:23.513Z,98079.19
2022-11-29T04:21:14.761Z,98083.72
2022-11-29T04:24:04.061Z,98083.72
2022-11-29T04:26:55.301Z,98088.91
2022-11-29T04:29:41.350Z,98085.34
2022-11-29T04:32:13.719Z,98089.22
2022-11-29T04:34:55.378Z,98091.78
2022-11-29T04:37:30.952Z,98088.25
2022-11-29T04:40:17.968Z,98091.13
2022-11-29T04:43:09.348Z,98102.47
2022-11-29T04:45:47.938Z,98100.84
2022-11-29T04:48:32.592Z,98108.81
2022-11-29T04:51:30.986Z,98109.63
2022-11-29T04:54:47.996Z,98106.38
2022-11-29T04:57:37.268Z,98114.94
2022-11-29T05:00:11.442Z,98116.91
2022-11-29T05:02:57.298Z,98120.63
2022-11-29T05:05:39.250Z,98111.41
2022-11-29T05:08:32.847Z,98122.72
2022-11-29T05:11:23.450Z,98120.31
2022-11-29T05:14:05.843Z,98125.47
2022-11-29T05:16:50.998Z,98122.53
2022-11-29T05:19:42.345Z,98126.09
2022-11-29T05:22:30.777Z,98118.34
2022-11-29T05:25:44.320Z,98129.66
2022-11-29T05:28:26.351Z,98137.91
2022-11-29T05:31:18.830Z,98139.22
2022-11-29T05:33:45.204Z,98146.19
2022-11-29T05:36:20.218Z,98143.91
2022-11-29T05:39:10.749Z,98157.03
2022-11-29T05:41:57.072Z,98154.78
2022-11-29T05:44:37.201Z,98156.84
2022-11-29T05:47:10.039Z,98158.34
2022-11-29T05:50:10.249Z,98159.59
2022-11-29T05:53:02.094Z,98159.78
2022-11-29T05:55:59.147Z,98167.84
2022-11-29T05:58:30.970Z,98171.56
2022-11-29T06:01:21.949Z,98171.56
2022-11-29T06:04:14.719Z,98173.31
2022-11-29T06:06:48.108Z,98179.63
2022-11-29T06:09:25.502Z,98175.44
2022-11-29T06:12:06.758Z,98184.50
2022-11-29T06:14:39.154Z,98189.50
2022-11-29T06:17:19.112Z,98194.53
2022-11-29T06:19:59.914Z,98189.84
2022-11-29T06:23:01.916Z,98206.03
2022-11-29T06:26:07.241Z,98202.94
2022-11-29T06:29:02.758Z,98203.75
2022-11-29T06:31:39.812Z,98199.88
2022-11-29T06:34:09.328Z,98206.50
2022-11-29T06:36:52.227Z,98208.13
2022-11-29T06:39:18.792Z,98200.69
2022-11-29T06:41:45.278Z,98205.38
2022-11-29T06:44:11.947Z,98216.50
2022-11-29T06:46:49.567Z,98212.50
2022-11-29T06:49:26.947Z,98218.47
2022-11-29T06:52:10.636Z,98223.69
2022-11-29T06:55:05.377Z,98217.50
2022-11-29T06:57:59.626Z,98213.69
2022-11-29T07:00:27.362Z,98220.03
2022-11-29T07:03:19.476Z,98224.09
2022-11-29T07:05:46.737Z,98216.63
2022-11-29T07:08:18.847Z,98215.31
2022-11-29T07:10:49.944Z,98220.44
2022-11-29T07:13:19.628Z,98217.03
2022-11-29T07:15:52.157Z,98218.47
2022-11-29T07:18:28.138Z,98231.09
2022-11-29T07:21:30.267Z,98235.47
2022-11-29T07:24:02.004Z,98238.06
2022-11-29T07:26:52.858Z,98253.13
2022-11-29T07:29:30.902Z,98257.19
2022-11-29T07:32:16.478Z,98263.34
2022-11-29T07:34:52.078Z,98265.28
2022-11-29T07:37:57.737Z,98274.03
2022-11-29T07:40:37.715Z,98277.28
2022-11-29T07:43:17.559Z,98281.84
2022-11-29T07:45:45.740Z,98286.25
2022-11-29T07:48:12.385Z,98285.63
2022-11-29T07:50:39.482Z,98283.25
2022-11-29T07:53:05.990Z,98274.66
2022-11-29T07:55:32.607Z,98277.22
2022-11-29T07:57:59.084Z,98281.75
2022-11-29T08:00:25.586Z,98276.91
2022-11-29T08:02:52.088Z,98279.16
2022-11-29T08:05:18.614Z,98288.56
2022-11-29T08:07:46.338Z,98291.81
2022-11-29T08:10:14.533Z,98292.44
2022-11-29T08:12:45.798Z,98292.44
2022-11-29T08:15:12.436Z,98302.47
2022-11-29T08:17:39.203Z,98299.72
2022-11-29T08:20:06.312Z,98301.31
2022-11-29T08:22:32.775Z,98298.25
2022-11-29T08:24:59.922Z,98313.31
2022-11-29T08:27:26.427Z,98307.19
2022-11-29T08:29:52.915Z,98298.75
2022-11-29T08:32:19.424Z,98311.06
2022-11-29T08:34:46.207Z,98321.72
2022-11-29T08:37:12.940Z,98316.72
2022-11-29T08:39:39.396Z,98320.78
2022-11-29T08:42:05.877Z,98317.88
2022-11-29T08:44:32.364Z,98329.09
2022-11-29T08:47:17.473Z,98334.91
2022-11-29T08:50:01.825Z,98319.84
2022-11-29T08:52:54.728Z,98327.25
2022-11-29T08:55:22.044Z,98340.03
2022-11-29T08:57:49.342Z,98346.84
2022-11-29T09:00:16.115Z,98340.38
2022-11-29T09:02:42.656Z,98344.44
2022-11-29T09:05:09.979Z,98338.47
2022-11-29T09:07:36.762Z,98350.47
2022-11-29T09:10:06.008Z,98349.84
2022-11-29T09:12:35.679Z,98351.31
2022-11-29T09:15:04.279Z,98354.72
2022-11-29T09:17:30.876Z,98355.88
2022-11-29T09:19:57.390Z,98361.06
2022-11-29T09:22:23.867Z,98352.78
2022-11-29T09:24:50.450Z,98350.50
2022-11-29T09:27:17.202Z,98356.66
2022-11-29T09:29:43.653Z,98354.75
2022-11-29T09:32:10.164Z,98365.41
2022-11-29T09:34:36.806Z,98364.78
2022-11-29T09:37:05.076Z,98367.91
2022-11-29T09:39:31.823Z,98367.03
2022-11-29T09:42:12.008Z,98377.25
2022-11-29T09:44:48.019Z,98374.31
2022-11-29T09:47:18.921Z,98373.69
2022-11-29T09:49:55.733Z,98370.69
2022-11-29T09:52:32.511Z,98374.72
2022-11-29T09:55:02.557Z,98375.69
2022-11-29T09:57:29.726Z,98377.31
2022-11-29T10:00:03.317Z,98376.19
2022-11-29T10:02:45.300Z,98366.78
2022-11-29T10:05:25.149Z,98375.53
2022-11-29T10:08:01.187Z,98373.41
2022-11-29T10:10:40.816Z,98379.25
2022-11-29T10:13:10.491Z,98383.13
2022-11-29T10:15:41.121Z,98380.41
2022-11-29T10:18:19.017Z,98380.25
2022-11-29T10:20:49.002Z,98380.72
2022-11-29T10:23:21.608Z,98386.59
2022-11-29T10:25:49.526Z,98385.59
2022-11-29T10:28:18.725Z,98375.38
2022-11-29T10:30:45.390Z,98380.41
2022-11-29T10:33:18.423Z,98373.75
2022-11-29T10:35:45.347Z,98377.81
2022-11-29T10:38:30.384Z,98376.69
2022-11-29T10:41:04.437Z,98380.44
2022-11-29T10:43:31.064Z,98384.47
2022-11-29T10:45:58.676Z,98382.03
2022-11-29T10:48:27.320Z,98388.72
2022-11-29T10:50:54.105Z,98389.16
2022-11-29T10:53:31.528Z,98385.78
2022-11-29T10:56:19.951Z,98382.53
2022-11-29T10:59:05.108Z,98380.75
2022-11-29T11:01:32.482Z,98386.91
2022-11-29T11:04:00.170Z,98390.16
2022-11-29T11:06:27.921Z,98385.16
2022-11-29T11:09:11.347Z,98383.00
2022-11-29T11:11:38.426Z,98376.69
2022-11-29T11:14:06.767Z,98373.94
2022-11-29T11:16:37.320Z,98374.75
2022-11-29T11:19:32.758Z,98391.28
2022-11-29T11:22:02.758Z,98382.38
2022-11-29T11:24:31.305Z,98379.44
2022-11-29T11:26:57.945Z,98381.25
2022-11-29T11:29:27.155Z,98378.50
2022-11-29T11:31:57.868Z,98387.72
2022-11-29T11:34:36.998Z,98386.09
2022-11-29T11:37:15.938Z,98387.53
2022-11-29T11:39:43.082Z,98384.47
2022-11-29T11:42:32.859Z,98395.66
2022-11-29T11:44:59.529Z,98389.34
2022-11-29T11:47:29.974Z,98399.91
2022-11-29T11:50:02.507Z,98405.06
2022-11-29T11:52:52.445Z,98404.91
2022-11-29T11:55:21.870Z,98395.50
2022-11-29T11:57:57.751Z,98398.91
2022-11-29T12:01:03.374Z,98404.75
2022-11-29T12:04:14.167Z,98399.41
2022-11-29T12:06:46.515Z,98408.50
2022-11-29T12:09:22.027Z,98406.38
2022-11-29T12:12:00.242Z,98397.78
2022-11-29T12:14:41.483Z,98398.75
2022-11-29T12:17:26.920Z,98410.91
2022-11-29T12:20:21.483Z,98412.72
2022-11-29T12:23:10.003Z,98415.16
2022-11-29T12:25:56.526Z,98421.47
2022-11-29T12:28:44.999Z,98421.78
2022-11-29T12:31:48.495Z,98420.94
2022-11-29T12:34:36.953Z,98420.16
2022-11-29T12:37:08.846Z,98424.38
2022-11-29T12:39:47.417Z,98419.81
2022-11-29T12:42:26.107Z,98425.34
2022-11-29T12:45:16.673Z,98425.34
2022-11-29T12:48:05.111Z,98422.41
2022-11-29T12:50:34.234Z,98424.38
2022-11-29T12:53:06.875Z,98431.22
2022-11-29T12:55:33.231Z,98437.22
2022-11-29T12:58:10.890Z,98437.38
2022-11-29T13:00:51.686Z,98434.09
2022-11-29T13:03:28.899Z,98437.84
2022-11-29T13:06:07.735Z,98438.66
2022-11-29T13:08:46.382Z,98446.28
2022-11-29T13:11:25.401Z,98447.75
2022-11-29T13:14:08.227Z,98445.66
2022-11-29T13:17:27.984Z,98448.88
2022-11-29T13:19:56.396Z,98455.19
2022-11-29T13:22:43.749Z,98455.50
2022-11-29T13:25:40.346Z,98453.72
2022-11-29T13:28:35.409Z,98453.72
2022-11-29T13:31:04.617Z,98455.03
2022-11-29T13:33:54.326Z,98455.84
2022-11-29T13:37:08.973Z,98453.09
2022-11-29T13:40:06.636Z,98449.34
2022-11-29T13:42:55.047Z,98446.59
2022-11-29T13:45:28.391Z,98450.81
2022-11-29T13:47:56.467Z,98446.59
2022-11-29T13:50:44.823Z,98448.69
2022-11-29T13:53:17.185Z,98447.91
2022-11-29T13:55:59.823Z,98456.00
2022-11-29T13:58:29.212Z,98452.94
2022-11-29T14:01:08.726Z,98461.38
2022-11-29T14:03:45.340Z,98461.38
2022-11-29T14:06:13.861Z,98453.75
2022-11-29T14:09:25.206Z,98460.06
2022-11-29T14:12:28.870Z,98455.34
2022-11-29T14:14:58.579Z,98457.63
2022-11-29T14:17:54.544Z,98468.19
2022-11-29T14:20:24.746Z,98462.50
2022-11-29T14:23:06.583Z,98457.63
2022-11-29T14:25:51.513Z,98464.78
2022-11-29T14:28:18.463Z,98462.50
2022-11-29T14:30:44.750Z,98466.06
2022-11-29T14:33:22.233Z,98466.56
2022-11-29T14:35:49.689Z,98468.97
2022-11-29T14:38:19.917Z,98469.94
2022-11-29T14:40:52.088Z,98468.00
2022-11-29T14:43:33.349Z,98460.53
2022-11-29T14:46:29.445Z,98467.03
2022-11-29T14:48:59.352Z,98478.09
2022-11-29T14:51:27.817Z,98473.72
2022-11-29T14:54:11.557Z,98480.03
2022-11-29T14:56:42.250Z,98480.03
2022-11-29T14:59:50.774Z,98480.84
2022-11-29T15:02:20.153Z,98484.75
2022-11-29T15:04:48.276Z,98490.56
2022-11-29T15:07:16.867Z,98490.41
2022-11-29T15:09:43.407Z,98495.63
2022-11-29T15:12:12.622Z,98498.41
2022-11-29T15:14:57.936Z,98494.97
2022-11-29T15:17:30.098Z,98491.56
2022-11-29T15:20:15.367Z,98499.19
2022-11-29T15:22:52.252Z,98504.72
2022-11-29T15:25:21.004Z,98507.31
2022-11-29T15:28:00.835Z,98512.19
2022-11-29T15:30:39.008Z,98501.81
2022-11-29T15:33:07.725Z,98512.19
2022-11-29T15:35:34.901Z,98513.16
2022-11-29T15:38:02.067Z,98518.19
2022-11-29T15:40:37.321Z,98522.09
2022-11-29T15:43:25.747Z,98514.13
2022-11-29T15:45:54.703Z,98513.66
2022-11-29T15:48:32.100Z,98517.03
2022-11-29T15:51:06.052Z,98510.72
2022-11-29T15:54:12.046Z,98518.34
2022-11-29T15:56:49.312Z,98526.44
2022-11-29T15:59:49.409Z,98522.91
2022-11-29T16:02:16.106Z,98530.03
2022-11-29T16:04:46.765Z,98522.41
2022-11-29T16:07:14.235Z,98532.94
2022-11-29T16:09:46.271Z,98531.16
2022-11-29T16:12:14.517Z,98539.94
2022-11-29T16:14:55.616Z,98544.31
2022-11-29T16:17:26.640Z,98541.88
2022-11-29T16:20:19.458Z,98548.19
2022-11-29T16:22:46.205Z,98546.56
2022-11-29T16:25:17.850Z,98551.63
2022-11-29T16:27:45.718Z,98553.75
2022-11-29T16:30:25.600Z,98559.75
2022-11-29T16:32:57.750Z,98563.00
2022-11-29T16:35:31.699Z,98562.00
2022-11-29T16:37:58.138Z,98556.00
2022-11-29T16:40:26.411Z,98555.19
2022-11-29T16:43:18.094Z,98562.97
2022-11-29T16:45:44.590Z,98566.53
2022-11-29T16:48:24.506Z,98568.31
2022-11-29T16:51:09.538Z,98559.56
2022-11-29T16:53:37.565Z,98571.41
2022-11-29T16:56:13.622Z,98566.38
2022-11-29T16:58:43.227Z,98568.31
2022-11-29T17:01:28.020Z,98574.97
2022-11-29T17:03:59.256Z,98591.03
2022-11-29T17:06:26.061Z,98578.41
2022-11-29T17:08:53.128Z,98579.19
2022-11-29T17:11:19.570Z,98585.50
2022-11-29T17:13:47.051Z,98582.75
2022-11-29T17:16:14.526Z,98591.22
2022-11-29T17:18:41.980Z,98600.63
2022-11-29T17:21:18.832Z,98595.41
2022-11-29T17:23:45.621Z,98597.03
2022-11-29T17:26:12.034Z,98604.69
2022-11-29T17:28:40.278Z,98598.84
2022-11-29T17:31:14.993Z,98605.81
2022-11-29T17:33:41.567Z,98603.38
2022-11-29T17:36:09.606Z,98609.38
2022-11-29T17:38:36.041Z,98614.59
2022-11-29T17:41:07.182Z,98618.16
2022-11-29T17:43:35.038Z,98616.84
2022-11-29T17:46:08.648Z,98622.69
2022-11-29T17:48:35.126Z,98621.38
2022-11-29T17:51:01.708Z,98624.94
2022-11-29T17:53:28.477Z,98623.00
2022-11-29T17:55:55.098Z,98625.28
2022-11-29T17:58:21.780Z,98626.88
2022-11-29T18:00:48.224Z,98625.75
2022-11-29T18:03:14.888Z,98629.66
2022-11-29T18:05:41.395Z,98630.47
2022-11-29T18:08:11.549Z,98634.34
2022-11-29T18:10:38.154Z,98634.53
2022-11-29T18:13:04.718Z,98631.28
2022-11-29T18:15:32.573Z,98635.66
2022-11-29T18:17:59.385Z,98633.91
2022-11-29T18:20:26.163Z,98637.28
2022-11-29T18:22:53.405Z,98640.88
2022-11-29T18:25:38.021Z,98643.44
2022-11-29T18:28:05.480Z,98649.31
2022-11-29T18:30:32.293Z,98643.78
2022-11-29T18:32:59.982Z,98655.66
2022-11-29T18:35:28.111Z,98651.66
2022-11-29T18:38:14.737Z,98652.66
2022-11-29T18:40:42.528Z,98650.00
2022-11-29T18:43:09.134Z,98646.75
2022-11-29T18:45:39.097Z,98648.69
2022-11-29T18:48:11.616Z,98643.53
2022-11-29T18:50:38.135Z,98637.31
2022-11-29T18:53:09.497Z,98639.13
2022-11-29T18:55:36.012Z,98643.84
2022-11-29T18:58:02.884Z,98645.09
2022-11-29T19:00:29.345Z,98643.81
2022-11-29T19:02:56.267Z,98650.63
2022-11-29T19:05:22.811Z,98646.31
2022-11-29T19:07:49.340Z,98647.25
2022-11-29T19:10:15.843Z,98645.78
2022-11-29T19:12:42.315Z,98647.72
2022-11-29T19:15:09.658Z,98650.50
2022-11-29T19:17:41.675Z,98643.16
2022-11-29T19:20:10.412Z,98645.94
2022-11-29T19:22:36.901Z,98651.13
2022-11-29T19:25:03.388Z,98645.13
2022-11-29T19:27:29.872Z,98648.69
2022-11-29T19:29:56.691Z,98649.88
2022-11-29T19:32:23.509Z,98648.06
2022-11-29T19:34:50.038Z,98640.13
2022-11-29T19:37:16.525Z,98647.13
2022-11-29T19:39:43.270Z,98641.75
2022-11-29T19:42:09.885Z,98636.06
2022-11-29T19:45:01.182Z,98640.41
2022-11-29T19:47:22.880Z,98644.78
2022-11-29T19:49:49.600Z,98645.78
2022-11-29T19:52:16.378Z,98644.97
2022-11-29T19:54:42.846Z,98647.25
2022-11-29T19:57:09.324Z,98647.56
2022-11-29T19:59:35.804Z,98651.81
2022-11-29T20:02:02.555Z,98654.72
2022-11-29T20:04:29.095Z,98655.88
2022-11-29T20:06:55.655Z,98653.78
2022-11-29T20:09:22.485Z,98659.72
2022-11-29T20:11:48.946Z,98662.34
2022-11-29T20:14:15.453Z,98662.34
2022-11-29T20:16:42.069Z,98662.34
2022-11-29T20:19:12.989Z,98670.00
2022-11-29T20:21:44.683Z,98663.19
2022-11-29T20:24:11.632Z,98667.69
2022-11-29T20:26:38.791Z,98673.53
2022-11-29T20:29:06.070Z,98673.69
2022-11-29T20:31:33.197Z,98669.03
2022-11-29T20:33:59.827Z,98671.63
2022-11-29T20:36:50.931Z,98671.78
2022-11-29T20:39:36.200Z,98668.50
2022-11-29T20:42:24.462Z,98668.19
2022-11-29T20:45:04.583Z,98670.44
2022-11-29T20:47:51.861Z,98664.75
2022-11-29T20:50:23.131Z,98673.34
2022-11-29T20:53:15.285Z,98667.50
2022-11-29T20:55:47.739Z,98669.13
2022-11-29T20:58:14.911Z,98668.22
2022-11-29T21:00:41.389Z,98678.28
2022-11-29T21:03:07.881Z,98676.97
2022-11-29T21:05:37.551Z,98675.16
2022-11-29T21:08:04.131Z,98682.13
2022-11-29T21:10:30.655Z,98685.38
2022-11-29T21:12:57.488Z,98684.09
2022-11-29T21:15:24.176Z,98687.31
2022-11-29T21:17:50.930Z,98686.38
2022-11-29T21:20:22.498Z,98681.31
2022-11-29T21:23:05.839Z,98687.13
2022-11-29T21:25:38.253Z,98685.81
2022-11-29T21:28:07.931Z,98681.13
2022-11-29T21:30:34.639Z,98681.75
2022-11-29T21:33:01.316Z,98689.44
2022-11-29T21:35:28.048Z,98693.34
2022-11-29T21:37:55.578Z,98689.75
2022-11-29T21:40:22.073Z,98694.59
2022-11-29T21:42:48.548Z,98686.97
2022-11-29T21:45:16.052Z,98696.38
2022-11-29T21:47:44.176Z,98692.97
2022-11-29T21:50:11.869Z,98701.25
2022-11-29T21:52:38.352Z,98698.81
2022-11-29T21:55:05.185Z,98710.66
2022-11-29T21:57:31.659Z,98704.31
2022-11-29T21:59:58.131Z,98709.19
2022-11-29T22:02:24.961Z,98705.63
2022-11-29T22:04:51.491Z,98713.78
2022-11-29T22:07:18.003Z,98716.50
2022-11-29T22:09:44.501Z,98714.06
2022-11-29T22:12:32.451Z,98712.78
2022-11-29T22:14:57.673Z,98712.09
2022-11-29T22:17:24.168Z,98720.06
2022-11-29T22:19:50.650Z,98719.16
2022-11-29T22:22:17.164Z,98722.81
2022-11-29T22:24:43.806Z,98721.03
2022-11-29T22:27:10.396Z,98719.41
2022-11-29T22:29:36.982Z,98716.78
2022-11-29T22:32:03.794Z,98715.66
2022-11-29T22:34:30.253Z,98713.72
2022-11-29T22:36:56.731Z,98718.41
2022-11-29T22:39:23.946Z,98723.13
2022-11-29T22:41:54.256Z,98719.03
2022-11-29T22:44:21.378Z,98722.31
2022-11-29T22:46:47.942Z,98722.81
2022-11-29T22:49:14.566Z,98718.59
2022-11-29T22:51:41.026Z,98723.63
2022-11-29T22:54:08.613Z,98718.91
2022-11-29T22:56:36.754Z,98717.28
2022-11-29T22:59:03.718Z,98722.81
2022-11-29T23:01:31.533Z,98724.56
2022-11-29T23:03:59.266Z,98729.75
2022-11-29T23:06:30.617Z,98729.34
2022-11-29T23:09:00.097Z,98731.09
2022-11-29T23:11:28.350Z,98731.25
2022-11-29T23:13:55.159Z,98729.63
2022-11-29T23:16:23.683Z,98731.41
2022-11-29T23:18:50.576Z,98728.28
2022-11-29T23:21:25.081Z,98728.25
2022-11-29T23:23:56.320Z,98729.69
2022-11-29T23:26:25.489Z,98725.81
2022-11-29T23:28:52.503Z,98718.78
2022-11-29T23:31:19.154Z,98716.22
2022-11-29T23:33:45.691Z,98721.44
2022-11-29T23:36:12.272Z,98715.72
2022-11-29T23:38:38.900Z,98706.63
2022-11-29T23:41:05.911Z,98711.53
2022-11-29T23:43:33.330Z,98711.53
2022-11-29T23:45:59.831Z,98710.69
2022-11-29T23:48:26.370Z,98718.50
2022-11-29T23:50:53.160Z,98718.44
2022-11-29T23:53:19.725Z,98717.31
2022-11-29T23:55:49.750Z,98717.66
2022-11-29T23:58:16.234Z,98719.09
